createdAt,value
2023-05-09T00:00:49.171Z,17.18
2023-05-09T00:01:49.204Z,17.17
2023-05-09T00:02:49.191Z,17.16
2023-05-09T00:03:49.397Z,17.14
2023-05-09T00:04:49.212Z,17.12
2023-05-09T00:05:49.390Z,17.11
2023-05-09T00:06:49.360Z,17.08
2023-05-09T00:07:49.352Z,17.05
2023-05-09T00:08:49.095Z,17.02
2023-05-09T00:09:49.070Z,17.00
2023-05-09T00:10:49.074Z,16.97
2023-05-09T00:11:50.318Z,16.95
2023-05-09T00:12:49.089Z,16.93
2023-05-09T00:13:49.050Z,16.92
2023-05-09T00:14:49.307Z,16.91
2023-05-09T00:15:49.263Z,16.91
2023-05-09T00:16:49.395Z,16.90
2023-05-09T00:17:49.033Z,16.90
2023-05-09T00:18:49.251Z,16.88
2023-05-09T00:19:48.960Z,16.88
2023-05-09T00:20:48.967Z,16.88
2023-05-09T00:21:49.206Z,16.86
2023-05-09T00:22:48.945Z,16.86
2023-05-09T00:23:48.917Z,16.84
2023-05-09T00:24:48.251Z,16.84
2023-05-09T00:25:48.913Z,16.83
2023-05-09T00:26:48.219Z,16.82
2023-05-09T00:27:48.890Z,16.81
2023-05-09T00:28:48.858Z,16.81
2023-05-09T00:29:48.193Z,16.80
2023-05-09T00:30:48.856Z,16.79
2023-05-09T00:31:49.176Z,16.78
2023-05-09T00:32:49.132Z,16.77
2023-05-09T00:33:48.801Z,16.77
2023-05-09T00:34:48.144Z,16.75
2023-05-09T00:35:48.115Z,16.73
2023-05-09T00:36:48.111Z,16.72
2023-05-09T00:37:48.763Z,16.71
2023-05-09T00:38:48.771Z,16.70
2023-05-09T00:39:49.021Z,16.68
2023-05-09T00:40:49.005Z,16.67
2023-05-09T00:41:48.054Z,16.67
2023-05-09T00:42:48.059Z,16.65
2023-05-09T00:43:48.990Z,16.64
2023-05-09T00:44:48.703Z,16.63
2023-05-09T00:45:48.999Z,16.62
2023-05-09T00:46:48.957Z,16.60
2023-05-09T00:47:48.980Z,16.59
2023-05-09T00:48:48.917Z,16.58
2023-05-09T00:49:48.916Z,16.58
2023-05-09T00:50:48.636Z,16.55
2023-05-09T00:51:48.920Z,16.54
2023-05-09T00:52:48.614Z,16.54
2023-05-09T00:53:48.615Z,16.54
2023-05-09T00:54:48.874Z,16.54
2023-05-09T00:55:49.857Z,16.54
2023-05-09T00:56:48.552Z,16.53
2023-05-09T00:57:47.896Z,16.52
2023-05-09T00:58:47.861Z,16.51
2023-05-09T00:59:47.864Z,16.50
2023-05-09T01:00:49.812Z,16.49
2023-05-09T01:01:48.577Z,16.48
2023-05-09T01:02:48.862Z,16.47
2023-05-09T01:03:48.816Z,16.45
2023-05-09T01:04:48.487Z,16.44
2023-05-09T01:05:48.456Z,16.43
2023-05-09T01:06:48.462Z,16.42
2023-05-09T01:07:48.712Z,16.42
2023-05-09T01:08:48.444Z,16.39
2023-05-09T01:09:48.677Z,16.38
2023-05-09T01:10:48.702Z,16.37
2023-05-09T01:11:48.414Z,16.36
2023-05-09T01:12:48.412Z,16.35
2023-05-09T01:13:48.386Z,16.34
2023-05-09T01:14:48.353Z,16.34
2023-05-09T01:15:48.366Z,16.34
2023-05-09T01:16:47.678Z,16.32
2023-05-09T01:17:48.377Z,16.33
2023-05-09T01:18:48.333Z,16.31
2023-05-09T01:19:48.308Z,16.31
2023-05-09T01:20:48.307Z,16.32
2023-05-09T01:21:47.612Z,16.30
2023-05-09T01:22:47.608Z,16.30
2023-05-09T01:23:48.285Z,16.30
2023-05-09T01:24:47.605Z,16.30
2023-05-09T01:25:48.256Z,16.30
2023-05-09T01:26:48.246Z,16.29
2023-05-09T01:27:47.543Z,16.30
2023-05-09T01:28:47.550Z,16.28
2023-05-09T01:29:47.560Z,16.29
2023-05-09T01:30:48.202Z,16.28
2023-05-09T01:31:47.597Z,16.28
2023-05-09T01:32:49.013Z,16.27
2023-05-09T01:33:48.145Z,16.27
2023-05-09T01:34:47.504Z,16.26
2023-05-09T01:35:48.141Z,16.26
2023-05-09T01:36:47.481Z,16.24
2023-05-09T01:37:48.121Z,16.24
2023-05-09T01:38:47.489Z,16.23
2023-05-09T01:39:47.425Z,16.23
2023-05-09T01:40:48.094Z,16.22
2023-05-09T01:41:48.078Z,16.21
2023-05-09T01:42:48.052Z,16.20
2023-05-09T01:43:48.087Z,16.19
2023-05-09T01:44:48.051Z,16.19
2023-05-09T01:45:47.372Z,16.18
2023-05-09T01:46:47.397Z,16.16
2023-05-09T01:47:47.370Z,16.16
2023-05-09T01:48:48.010Z,16.16
2023-05-09T01:49:47.301Z,16.14
2023-05-09T01:50:47.978Z,16.14
2023-05-09T01:51:47.281Z,16.13
2023-05-09T01:52:47.941Z,16.13
2023-05-09T01:53:47.953Z,16.13
2023-05-09T01:54:47.948Z,16.13
2023-05-09T01:55:47.924Z,16.14
2023-05-09T01:56:47.905Z,16.15
2023-05-09T01:57:47.235Z,16.15
2023-05-09T01:58:47.896Z,16.16
2023-05-09T01:59:47.882Z,16.17
2023-05-09T02:00:49.165Z,16.18
2023-05-09T02:01:47.847Z,16.18
2023-05-09T02:02:47.319Z,16.19
2023-05-09T02:03:47.842Z,16.20
2023-05-09T02:04:47.828Z,16.20
2023-05-09T02:05:47.800Z,16.22
2023-05-09T02:06:47.782Z,16.22
2023-05-09T02:07:47.789Z,16.22
2023-05-09T02:08:47.114Z,16.22
2023-05-09T02:09:47.773Z,16.22
2023-05-09T02:10:47.743Z,16.23
2023-05-09T02:11:47.750Z,16.22
2023-05-09T02:12:47.797Z,16.22
2023-05-09T02:13:47.045Z,16.21
2023-05-09T02:14:47.048Z,16.21
2023-05-09T02:15:47.072Z,16.21
2023-05-09T02:16:47.748Z,16.20
2023-05-09T02:17:47.717Z,16.20
2023-05-09T02:18:47.674Z,16.20
2023-05-09T02:19:47.651Z,16.20
2023-05-09T02:20:47.650Z,16.21
2023-05-09T02:21:47.642Z,16.20
2023-05-09T02:22:47.641Z,16.20
2023-05-09T02:23:47.616Z,16.20
2023-05-09T02:24:47.587Z,16.19
2023-05-09T02:25:47.605Z,16.18
2023-05-09T02:26:47.589Z,16.18
2023-05-09T02:27:47.619Z,16.19
2023-05-09T02:28:46.883Z,16.18
2023-05-09T02:29:46.887Z,16.18
2023-05-09T02:30:47.536Z,16.17
2023-05-09T02:31:47.564Z,16.16
2023-05-09T02:32:47.551Z,16.16
2023-05-09T02:33:47.505Z,16.16
2023-05-09T02:34:46.863Z,16.15
2023-05-09T02:35:47.496Z,16.15
2023-05-09T02:36:47.472Z,16.14
2023-05-09T02:37:46.796Z,16.13
2023-05-09T02:38:47.434Z,16.13
2023-05-09T02:39:47.420Z,16.13
2023-05-09T02:40:46.747Z,16.12
2023-05-09T02:41:46.735Z,16.12
2023-05-09T02:42:46.724Z,16.11
2023-05-09T02:43:46.746Z,16.10
2023-05-09T02:44:47.389Z,16.09
2023-05-09T02:45:47.384Z,16.08
2023-05-09T02:46:46.685Z,16.07
2023-05-09T02:47:47.651Z,16.06
2023-05-09T02:48:46.671Z,16.06
2023-05-09T02:49:47.580Z,16.05
2023-05-09T02:50:47.317Z,16.04
2023-05-09T02:51:47.571Z,16.04
2023-05-09T02:52:47.592Z,16.04
2023-05-09T02:53:47.570Z,16.04
2023-05-09T02:54:47.273Z,16.03
2023-05-09T02:55:47.260Z,16.05
2023-05-09T02:56:47.525Z,16.03
2023-05-09T02:57:47.575Z,16.03
2023-05-09T02:58:47.506Z,16.01
2023-05-09T02:59:47.216Z,16.01
2023-05-09T03:00:47.486Z,16.00
2023-05-09T03:01:47.226Z,15.99
2023-05-09T03:02:46.656Z,15.98
2023-05-09T03:03:47.289Z,15.98
2023-05-09T03:04:47.160Z,15.97
2023-05-09T03:05:46.477Z,15.96
2023-05-09T03:06:47.127Z,15.94
2023-05-09T03:07:46.462Z,15.93
2023-05-09T03:08:46.431Z,15.92
2023-05-09T03:09:47.103Z,15.91
2023-05-09T03:10:46.541Z,15.90
2023-05-09T03:11:46.433Z,15.89
2023-05-09T03:12:47.090Z,15.88
2023-05-09T03:13:47.063Z,15.86
2023-05-09T03:14:47.057Z,15.85
2023-05-09T03:15:46.382Z,15.84
2023-05-09T03:16:47.389Z,15.83
2023-05-09T03:17:46.386Z,15.82
2023-05-09T03:18:46.327Z,15.82
2023-05-09T03:19:46.321Z,15.81
2023-05-09T03:20:46.375Z,15.81
2023-05-09T03:21:46.332Z,15.79
2023-05-09T03:22:46.370Z,15.78
2023-05-09T03:23:46.278Z,15.78
2023-05-09T03:24:46.262Z,15.77
2023-05-09T03:25:46.272Z,15.77
2023-05-09T03:26:46.234Z,15.75
2023-05-09T03:27:46.227Z,15.75
2023-05-09T03:28:46.892Z,15.75
2023-05-09T03:29:46.203Z,15.74
2023-05-09T03:30:46.228Z,15.74
2023-05-09T03:31:46.940Z,15.74
2023-05-09T03:32:46.920Z,15.73
2023-05-09T03:33:46.849Z,15.73
2023-05-09T03:34:46.168Z,15.72
2023-05-09T03:35:46.800Z,15.72
2023-05-09T03:36:46.820Z,15.71
2023-05-09T03:37:46.810Z,15.69
2023-05-09T03:38:46.104Z,15.69
2023-05-09T03:39:46.761Z,15.68
2023-05-09T03:40:46.769Z,15.68
2023-05-09T03:41:46.069Z,15.68
2023-05-09T03:42:46.754Z,15.68
2023-05-09T03:43:46.730Z,15.68
2023-05-09T03:44:46.046Z,15.68
2023-05-09T03:45:46.060Z,15.68
2023-05-09T03:46:46.070Z,15.69
2023-05-09T03:47:46.049Z,15.71
2023-05-09T03:48:46.657Z,15.72
2023-05-09T03:49:46.652Z,15.73
2023-05-09T03:50:45.992Z,15.74
2023-05-09T03:51:46.651Z,15.75
2023-05-09T03:52:45.972Z,15.75
2023-05-09T03:53:46.073Z,15.78
2023-05-09T03:54:46.607Z,15.80
2023-05-09T03:55:46.621Z,15.83
2023-05-09T03:56:45.913Z,15.85
2023-05-09T03:57:45.920Z,15.88
2023-05-09T03:58:45.952Z,15.91
2023-05-09T03:59:45.983Z,15.95
2023-05-09T04:00:45.844Z,15.98
2023-05-09T04:01:45.892Z,16.00
2023-05-09T04:02:45.938Z,16.03
2023-05-09T04:03:46.651Z,16.06
2023-05-09T04:04:46.510Z,16.10
2023-05-09T04:05:46.492Z,16.13
2023-05-09T04:06:46.479Z,16.18
2023-05-09T04:07:45.792Z,16.23
2023-05-09T04:08:45.778Z,16.28
2023-05-09T04:09:46.717Z,16.32
2023-05-09T04:10:46.442Z,16.35
2023-05-09T04:11:45.754Z,16.38
2023-05-09T04:12:45.778Z,16.43
2023-05-09T04:13:46.401Z,16.45
2023-05-09T04:14:48.925Z,16.47
2023-05-09T04:15:45.683Z,16.50
2023-05-09T04:16:45.712Z,16.53
2023-05-09T04:17:45.763Z,16.55
2023-05-09T04:18:45.659Z,16.57
2023-05-09T04:19:45.668Z,16.60
2023-05-09T04:20:46.329Z,16.63
2023-05-09T04:21:46.311Z,16.67
2023-05-09T04:22:46.914Z,16.68
2023-05-09T04:23:47.050Z,16.69
2023-05-09T04:24:46.288Z,16.70
2023-05-09T04:25:46.279Z,16.71
2023-05-09T04:26:45.596Z,16.73
2023-05-09T04:27:46.264Z,16.74
2023-05-09T04:28:45.556Z,16.76
2023-05-09T04:29:46.228Z,16.79
2023-05-09T04:30:46.231Z,16.81
2023-05-09T04:31:46.370Z,16.82
2023-05-09T04:32:46.343Z,16.84
2023-05-09T04:33:46.184Z,16.86
2023-05-09T04:34:45.578Z,16.89
2023-05-09T04:35:45.480Z,16.93
2023-05-09T04:36:45.477Z,16.97
2023-05-09T04:37:45.462Z,17.00
2023-05-09T04:38:46.134Z,17.05
2023-05-09T04:39:45.452Z,17.09
2023-05-09T04:40:45.436Z,17.15
2023-05-09T04:41:45.415Z,17.23
2023-05-09T04:42:45.411Z,17.32
2023-05-09T04:43:45.411Z,17.44
2023-05-09T04:44:45.421Z,17.64
2023-05-09T04:45:45.362Z,17.82
2023-05-09T04:46:45.426Z,17.99
2023-05-09T04:47:46.046Z,18.10
2023-05-09T04:48:45.346Z,18.16
2023-05-09T04:49:45.346Z,18.17
2023-05-09T04:50:45.328Z,18.16
2023-05-09T04:51:46.268Z,18.15
2023-05-09T04:52:45.989Z,18.11
2023-05-09T04:53:45.952Z,18.09
2023-05-09T04:54:45.301Z,18.07
2023-05-09T04:55:45.266Z,18.06
2023-05-09T04:56:45.300Z,18.06
2023-05-09T04:57:45.928Z,18.07
2023-05-09T04:58:45.896Z,18.08
2023-05-09T04:59:45.215Z,18.12
2023-05-09T05:00:45.899Z,18.17
2023-05-09T05:01:45.231Z,18.23
2023-05-09T05:02:45.924Z,18.27
2023-05-09T05:03:45.182Z,18.33
2023-05-09T05:04:45.264Z,18.38
2023-05-09T05:05:45.265Z,18.38
2023-05-09T05:06:45.828Z,18.36
2023-05-09T05:07:45.802Z,18.36
2023-05-09T05:08:45.198Z,18.36
2023-05-09T05:09:45.798Z,18.37
2023-05-09T05:10:45.099Z,18.36
2023-05-09T05:11:53.144Z,18.38
2023-05-09T05:12:46.120Z,18.39
2023-05-09T05:13:45.050Z,18.40
2023-05-09T05:14:45.053Z,18.39
2023-05-09T05:15:45.101Z,18.39
2023-05-09T05:16:45.038Z,18.40
2023-05-09T05:17:45.059Z,18.41
2023-05-09T05:18:45.010Z,18.42
2023-05-09T05:19:45.685Z,18.44
2023-05-09T05:20:45.002Z,18.46
2023-05-09T05:21:45.004Z,18.48
2023-05-09T05:22:44.980Z,18.52
2023-05-09T05:23:45.678Z,18.55
2023-05-09T05:24:44.963Z,18.59
2023-05-09T05:25:45.624Z,18.63
2023-05-09T05:26:45.640Z,18.67
2023-05-09T05:27:44.909Z,18.71
2023-05-09T05:28:44.909Z,18.75
2023-05-09T05:29:45.587Z,18.79
2023-05-09T05:30:45.578Z,18.82
2023-05-09T05:31:45.554Z,18.85
2023-05-09T05:32:44.897Z,18.89
2023-05-09T05:33:44.847Z,18.94
2023-05-09T05:34:44.841Z,18.98
2023-05-09T05:35:44.851Z,18.99
2023-05-09T05:36:45.487Z,19.00
2023-05-09T05:37:47.095Z,19.01
2023-05-09T05:38:44.790Z,19.02
2023-05-09T05:39:44.778Z,19.02
2023-05-09T05:40:44.780Z,19.03
2023-05-09T05:41:45.445Z,19.02
2023-05-09T05:42:45.689Z,19.02
2023-05-09T05:43:44.739Z,19.02
2023-05-09T05:44:45.416Z,19.03
2023-05-09T05:45:45.401Z,19.03
2023-05-09T05:46:45.389Z,19.04
2023-05-09T05:47:44.767Z,19.04
2023-05-09T05:48:44.697Z,19.07
2023-05-09T05:49:45.336Z,19.09
2023-05-09T05:50:44.692Z,19.12
2023-05-09T05:51:44.656Z,19.16
2023-05-09T05:52:45.323Z,19.19
2023-05-09T05:53:45.322Z,19.22
2023-05-09T05:54:45.288Z,19.25
2023-05-09T05:55:44.601Z,19.26
2023-05-09T05:56:45.527Z,19.27
2023-05-09T05:57:45.265Z,19.26
2023-05-09T05:58:45.259Z,19.26
2023-05-09T05:59:45.229Z,19.25
2023-05-09T06:00:44.544Z,19.23
2023-05-09T06:01:44.539Z,19.23
2023-05-09T06:02:44.740Z,19.23
2023-05-09T06:03:45.249Z,19.24
2023-05-09T06:04:45.175Z,19.26
2023-05-09T06:05:45.180Z,19.28
2023-05-09T06:06:44.479Z,19.31
2023-05-09T06:07:44.460Z,19.34
2023-05-09T06:08:44.467Z,19.37
2023-05-09T06:09:44.450Z,19.37
2023-05-09T06:10:45.119Z,19.39
2023-05-09T06:11:45.114Z,19.41
2023-05-09T06:12:45.479Z,19.41
2023-05-09T06:13:45.063Z,19.43
2023-05-09T06:14:44.448Z,19.43
2023-05-09T06:15:45.091Z,19.45
2023-05-09T06:16:45.088Z,19.47
2023-05-09T06:17:45.074Z,19.49
2023-05-09T06:18:44.370Z,19.50
2023-05-09T06:19:44.335Z,19.51
2023-05-09T06:20:44.333Z,19.50
2023-05-09T06:21:44.312Z,19.46
2023-05-09T06:22:44.969Z,19.41
2023-05-09T06:24:01.473Z,19.37
2023-05-09T06:24:46.706Z,19.31
2023-05-09T06:25:44.251Z,19.27
2023-05-09T06:26:44.261Z,19.22
2023-05-09T06:27:44.297Z,19.17
2023-05-09T06:28:44.246Z,19.14
2023-05-09T06:29:44.221Z,19.10
2023-05-09T06:30:44.905Z,19.05
2023-05-09T06:31:44.912Z,19.01
2023-05-09T06:32:44.928Z,18.97
2023-05-09T06:33:44.879Z,18.92
2023-05-09T06:34:44.190Z,18.88
2023-05-09T06:35:44.855Z,18.84
2023-05-09T06:36:44.817Z,18.82
2023-05-09T06:37:47.003Z,18.80
2023-05-09T06:38:44.834Z,18.79
2023-05-09T06:39:44.124Z,18.79
2023-05-09T06:40:44.106Z,18.78
2023-05-09T06:41:45.056Z,18.78
2023-05-09T06:42:44.079Z,18.79
2023-05-09T06:43:44.083Z,18.79
2023-05-09T06:44:44.763Z,18.79
2023-05-09T06:45:44.720Z,18.79
2023-05-09T06:46:45.104Z,18.79
2023-05-09T06:47:46.027Z,18.79
2023-05-09T06:48:44.705Z,18.80
2023-05-09T06:49:45.979Z,18.82
2023-05-09T06:50:44.951Z,18.81
2023-05-09T06:51:44.676Z,18.81
2023-05-09T06:52:44.923Z,18.81
2023-05-09T06:53:44.925Z,18.81
2023-05-09T06:54:43.957Z,18.81
2023-05-09T06:55:44.612Z,18.81
2023-05-09T06:56:44.910Z,18.80
2023-05-09T06:57:44.879Z,18.82
2023-05-09T06:58:44.934Z,18.82
2023-05-09T06:59:44.876Z,18.84
2023-05-09T07:00:44.850Z,18.86
2023-05-09T07:01:44.655Z,18.88
2023-05-09T07:02:44.840Z,18.88
2023-05-09T07:03:44.540Z,18.86
2023-05-09T07:04:44.871Z,18.86
2023-05-09T07:05:44.785Z,18.86
2023-05-09T07:06:44.515Z,18.87
2023-05-09T07:07:44.787Z,18.89
2023-05-09T07:08:44.737Z,18.92
2023-05-09T07:09:44.747Z,18.95
2023-05-09T07:10:44.460Z,19.00
2023-05-09T07:11:43.766Z,19.05
2023-05-09T07:12:43.767Z,19.12
2023-05-09T07:13:44.428Z,19.19
2023-05-09T07:14:44.402Z,19.27
2023-05-09T07:15:44.641Z,19.35
2023-05-09T07:16:43.769Z,19.43
2023-05-09T07:17:44.835Z,19.50
2023-05-09T07:18:44.653Z,19.58
2023-05-09T07:19:44.662Z,19.65
2023-05-09T07:20:44.628Z,19.74
2023-05-09T07:21:44.348Z,19.83
2023-05-09T07:22:45.649Z,19.92
2023-05-09T07:23:44.614Z,20.06
2023-05-09T07:24:44.318Z,20.24
2023-05-09T07:25:44.312Z,20.45
2023-05-09T07:26:44.294Z,20.63
2023-05-09T07:27:44.273Z,20.81
2023-05-09T07:28:44.577Z,20.93
2023-05-09T07:29:44.549Z,21.05
2023-05-09T07:30:44.514Z,21.13
2023-05-09T07:31:44.313Z,21.18
2023-05-09T07:32:44.551Z,21.22
2023-05-09T07:33:44.225Z,21.24
2023-05-09T07:34:44.206Z,21.29
2023-05-09T07:35:44.196Z,21.35
2023-05-09T07:36:44.476Z,21.42
2023-05-09T07:37:44.162Z,21.49
2023-05-09T07:38:44.165Z,21.54
2023-05-09T07:39:44.410Z,21.57
2023-05-09T07:40:44.139Z,21.58
2023-05-09T07:41:44.426Z,21.53
2023-05-09T07:42:44.092Z,21.44
2023-05-09T07:43:44.119Z,21.30
2023-05-09T07:44:44.356Z,21.17
2023-05-09T07:45:44.112Z,21.07
2023-05-09T07:46:44.338Z,20.98
2023-05-09T07:47:44.133Z,20.91
2023-05-09T07:48:44.327Z,20.85
2023-05-09T07:49:44.036Z,20.81
2023-05-09T07:50:44.304Z,20.77
2023-05-09T07:51:44.285Z,20.73
2023-05-09T07:52:43.997Z,20.68
2023-05-09T07:53:43.990Z,20.64
2023-05-09T07:54:43.979Z,20.60
2023-05-09T07:55:44.251Z,20.58
2023-05-09T07:56:44.208Z,20.61
2023-05-09T07:57:43.945Z,20.66
2023-05-09T07:58:43.951Z,20.72
2023-05-09T07:59:43.937Z,20.78
2023-05-09T08:00:43.896Z,20.83
2023-05-09T08:01:44.170Z,20.87
2023-05-09T08:02:44.051Z,20.89
2023-05-09T08:03:44.018Z,20.93
2023-05-09T08:04:44.140Z,20.94
2023-05-09T08:05:44.140Z,20.93
2023-05-09T08:06:44.104Z,20.92
2023-05-09T08:07:44.107Z,20.93
2023-05-09T08:08:43.823Z,20.94
2023-05-09T08:09:44.101Z,20.90
2023-05-09T08:10:43.781Z,20.84
2023-05-09T08:11:44.075Z,20.79
2023-05-09T08:12:44.071Z,20.77
2023-05-09T08:13:43.770Z,20.78
2023-05-09T08:14:44.051Z,20.78
2023-05-09T08:15:43.768Z,20.73
2023-05-09T08:16:44.007Z,20.68
2023-05-09T08:17:43.774Z,20.64
2023-05-09T08:18:43.719Z,20.60
2023-05-09T08:19:43.690Z,20.56
2023-05-09T08:20:43.999Z,20.53
2023-05-09T08:21:42.997Z,20.50
2023-05-09T08:22:43.936Z,20.49
2023-05-09T08:23:42.974Z,20.51
2023-05-09T08:24:43.635Z,20.55
2023-05-09T08:25:43.646Z,20.60
2023-05-09T08:26:42.969Z,20.67
2023-05-09T08:27:42.968Z,20.72
2023-05-09T08:28:43.589Z,20.77
2023-05-09T08:29:43.889Z,20.85
2023-05-09T08:30:43.836Z,20.97
2023-05-09T08:31:43.617Z,21.11
2023-05-09T08:32:43.573Z,21.25
2023-05-09T08:33:43.551Z,21.41
2023-05-09T08:34:43.541Z,21.53
2023-05-09T08:35:43.795Z,21.64
2023-05-09T08:36:43.519Z,21.74
2023-05-09T08:37:43.492Z,21.83
2023-05-09T08:38:43.786Z,21.94
2023-05-09T08:39:43.746Z,22.02
2023-05-09T08:40:43.739Z,22.07
2023-05-09T08:41:43.466Z,22.13
2023-05-09T08:42:43.742Z,22.16
2023-05-09T08:43:43.443Z,22.21
2023-05-09T08:44:43.707Z,22.23
2023-05-09T08:45:43.678Z,22.21
2023-05-09T08:46:43.740Z,22.17
2023-05-09T08:47:43.688Z,22.16
2023-05-09T08:48:43.621Z,22.16
2023-05-09T08:49:43.383Z,22.16
2023-05-09T08:50:43.625Z,22.16
2023-05-09T08:51:43.354Z,22.14
2023-05-09T08:52:43.340Z,22.12
2023-05-09T08:53:43.337Z,22.11
2023-05-09T08:54:42.646Z,22.09
2023-05-09T08:55:42.628Z,22.07
2023-05-09T08:56:42.636Z,22.06
2023-05-09T08:57:43.275Z,22.07
2023-05-09T08:58:43.279Z,22.12
2023-05-09T08:59:43.280Z,22.18
2023-05-09T09:00:43.257Z,22.22
2023-05-09T09:01:43.338Z,22.27
2023-05-09T09:02:43.260Z,22.31
2023-05-09T09:03:43.222Z,22.38
2023-05-09T09:04:43.266Z,22.43
2023-05-09T09:05:43.245Z,22.47
2023-05-09T09:06:43.172Z,22.49
2023-05-09T09:07:42.508Z,22.50
2023-05-09T09:08:43.185Z,22.55
2023-05-09T09:09:43.162Z,22.66
2023-05-09T09:10:43.134Z,22.78
2023-05-09T09:11:43.134Z,22.86
2023-05-09T09:12:42.445Z,22.95
2023-05-09T09:13:43.118Z,23.20
2023-05-09T09:14:43.112Z,23.54
2023-05-09T09:15:43.083Z,23.78
2023-05-09T09:16:43.175Z,23.89
2023-05-09T09:17:43.100Z,24.00
2023-05-09T09:18:43.064Z,24.13
2023-05-09T09:19:43.065Z,24.20
2023-05-09T09:20:42.404Z,24.27
2023-05-09T09:21:43.036Z,24.38
2023-05-09T09:22:43.027Z,24.53
2023-05-09T09:23:43.025Z,24.71
2023-05-09T09:24:42.328Z,24.87
2023-05-09T09:25:42.331Z,24.99
2023-05-09T09:26:42.978Z,25.01
2023-05-09T09:27:42.973Z,25.00
2023-05-09T09:28:42.978Z,25.12
2023-05-09T09:29:42.924Z,25.36
2023-05-09T09:30:42.931Z,25.62
2023-05-09T09:31:42.952Z,25.75
2023-05-09T09:32:42.271Z,25.79
2023-05-09T09:33:42.914Z,25.75
2023-05-09T09:34:42.871Z,25.68
2023-05-09T09:35:42.880Z,25.62
2023-05-09T09:36:42.192Z,25.54
2023-05-09T09:37:42.866Z,25.42
2023-05-09T09:38:42.841Z,25.29
2023-05-09T09:39:42.813Z,25.12
2023-05-09T09:40:42.145Z,24.94
2023-05-09T09:41:42.136Z,24.76
2023-05-09T09:42:42.806Z,24.58
2023-05-09T09:43:42.774Z,24.40
2023-05-09T09:44:42.782Z,24.26
2023-05-09T09:45:42.863Z,24.16
2023-05-09T09:46:42.755Z,24.12
2023-05-09T09:47:42.114Z,24.09
2023-05-09T09:48:42.717Z,24.07
2023-05-09T09:49:43.095Z,24.07
2023-05-09T09:50:42.713Z,24.06
2023-05-09T09:51:42.036Z,24.06
2023-05-09T09:52:42.676Z,24.02
2023-05-09T09:53:42.663Z,23.97
2023-05-09T09:54:42.696Z,23.91
2023-05-09T09:55:44.179Z,23.84
2023-05-09T09:56:42.661Z,23.76
2023-05-09T09:57:42.635Z,23.73
2023-05-09T09:58:41.939Z,23.73
2023-05-09T09:59:42.620Z,23.77
2023-05-09T10:00:42.604Z,23.87
2023-05-09T10:01:42.107Z,24.09
2023-05-09T10:02:42.573Z,24.38
2023-05-09T10:03:42.609Z,24.71
2023-05-09T10:04:41.881Z,25.04
2023-05-09T10:05:41.906Z,25.31
2023-05-09T10:06:41.882Z,25.47
2023-05-09T10:07:42.508Z,25.59
2023-05-09T10:08:42.526Z,25.65
2023-05-09T10:09:42.504Z,25.70
2023-05-09T10:10:42.493Z,25.71
2023-05-09T10:11:41.823Z,25.61
2023-05-09T10:12:42.504Z,25.49
2023-05-09T10:13:42.544Z,25.34
2023-05-09T10:14:41.780Z,25.19
2023-05-09T10:15:52.931Z,25.00
2023-05-09T10:16:44.754Z,24.82
2023-05-09T10:17:42.644Z,24.66
2023-05-09T10:18:42.757Z,24.50
2023-05-09T10:19:42.405Z,24.33
2023-05-09T10:20:42.367Z,24.18
2023-05-09T10:21:42.353Z,24.01
2023-05-09T10:22:42.369Z,23.84
2023-05-09T10:23:42.352Z,23.72
2023-05-09T10:24:41.655Z,23.62
2023-05-09T10:25:41.684Z,23.59
2023-05-09T10:26:42.316Z,23.63
2023-05-09T10:27:42.307Z,23.70
2023-05-09T10:28:42.341Z,23.81
2023-05-09T10:29:42.298Z,23.95
2023-05-09T10:30:42.252Z,24.11
2023-05-09T10:31:41.593Z,24.32
2023-05-09T10:32:41.567Z,24.73
2023-05-09T10:33:42.243Z,25.27
2023-05-09T10:34:42.215Z,25.51
2023-05-09T10:35:42.202Z,25.71
2023-05-09T10:36:42.208Z,25.89
2023-05-09T10:37:41.525Z,26.04
2023-05-09T10:38:41.512Z,26.15
2023-05-09T10:39:42.161Z,26.21
2023-05-09T10:40:41.481Z,26.23
2023-05-09T10:41:42.151Z,26.22
2023-05-09T10:42:42.169Z,26.25
2023-05-09T10:43:42.110Z,26.27
2023-05-09T10:44:42.104Z,26.22
2023-05-09T10:45:41.432Z,26.13
2023-05-09T10:46:42.175Z,26.07
2023-05-09T10:47:41.427Z,26.06
2023-05-09T10:48:42.058Z,26.07
2023-05-09T10:49:42.065Z,26.16
2023-05-09T10:50:41.415Z,26.50
2023-05-09T10:51:42.038Z,26.69
2023-05-09T10:52:41.339Z,26.92
2023-05-09T10:53:42.010Z,27.18
2023-05-09T10:54:41.339Z,27.37
2023-05-09T10:55:41.311Z,27.47
2023-05-09T10:56:41.294Z,27.58
2023-05-09T10:57:41.954Z,27.70
2023-05-09T10:58:41.317Z,27.78
2023-05-09T10:59:41.962Z,27.82
2023-05-09T11:00:41.945Z,27.94
2023-05-09T11:01:41.274Z,28.03
2023-05-09T11:02:41.968Z,28.07
2023-05-09T11:03:41.960Z,28.10
2023-05-09T11:04:41.933Z,28.15
2023-05-09T11:05:41.901Z,28.20
2023-05-09T11:06:41.201Z,28.24
2023-05-09T11:07:41.851Z,28.29
2023-05-09T11:08:41.223Z,28.29
2023-05-09T11:09:41.183Z,28.25
2023-05-09T11:10:41.852Z,28.27
2023-05-09T11:11:41.812Z,28.29
2023-05-09T11:12:41.843Z,28.29
2023-05-09T11:13:41.820Z,28.27
2023-05-09T11:14:41.108Z,28.29
2023-05-09T11:15:41.788Z,28.28
2023-05-09T11:16:41.126Z,28.21
2023-05-09T11:17:41.817Z,28.21
2023-05-09T11:18:41.077Z,28.30
2023-05-09T11:19:41.066Z,28.43
2023-05-09T11:20:41.057Z,28.58
2023-05-09T11:21:41.712Z,28.70
2023-05-09T11:22:41.038Z,28.80
2023-05-09T11:23:41.970Z,28.82
2023-05-09T11:24:41.685Z,28.84
2023-05-09T11:25:41.014Z,28.85
2023-05-09T11:26:41.015Z,28.88
2023-05-09T11:27:41.662Z,28.93
2023-05-09T11:28:41.653Z,29.02
2023-05-09T11:29:41.046Z,29.09
2023-05-09T11:30:41.605Z,29.11
2023-05-09T11:31:41.654Z,29.05
2023-05-09T11:32:40.944Z,28.99
2023-05-09T11:33:40.950Z,28.97
2023-05-09T11:34:40.899Z,28.88
2023-05-09T11:35:41.576Z,28.79
2023-05-09T11:36:40.869Z,28.78
2023-05-09T11:37:41.573Z,28.78
2023-05-09T11:38:41.538Z,28.70
2023-05-09T11:39:41.508Z,28.62
2023-05-09T11:40:41.494Z,28.60
2023-05-09T11:41:41.508Z,28.58
2023-05-09T11:42:40.810Z,28.56
2023-05-09T11:43:40.804Z,28.52
2023-05-09T11:44:40.801Z,28.47
2023-05-09T11:45:40.804Z,28.43
2023-05-09T11:46:41.454Z,28.39
2023-05-09T11:47:40.791Z,28.38
2023-05-09T11:48:40.744Z,28.41
2023-05-09T11:49:40.756Z,28.44
2023-05-09T11:50:41.416Z,28.50
2023-05-09T11:51:41.401Z,28.54
2023-05-09T11:52:40.708Z,28.59
2023-05-09T11:53:41.362Z,28.63
2023-05-09T11:54:41.354Z,28.67
2023-05-09T11:55:40.667Z,28.66
2023-05-09T11:56:41.354Z,28.66
2023-05-09T11:57:40.647Z,28.68
2023-05-09T11:58:40.656Z,28.70
2023-05-09T11:59:41.317Z,28.75
2023-05-09T12:00:40.611Z,28.77
2023-05-09T12:01:41.301Z,28.80
2023-05-09T12:02:40.683Z,28.80
2023-05-09T12:03:41.349Z,28.80
2023-05-09T12:04:40.749Z,28.83
2023-05-09T12:05:40.559Z,28.87
2023-05-09T12:06:40.543Z,28.89
2023-05-09T12:07:41.205Z,28.89
2023-05-09T12:08:41.191Z,28.89
2023-05-09T12:09:40.572Z,28.89
2023-05-09T12:10:40.511Z,28.90
2023-05-09T12:11:40.489Z,28.96
2023-05-09T12:12:40.523Z,28.99
2023-05-09T12:13:41.165Z,29.04
2023-05-09T12:14:40.461Z,29.09
2023-05-09T12:15:42.056Z,29.17
2023-05-09T12:16:40.530Z,29.24
2023-05-09T12:17:40.472Z,29.31
2023-05-09T12:18:41.100Z,29.34
2023-05-09T12:19:40.413Z,29.35
2023-05-09T12:20:41.082Z,29.36
2023-05-09T12:21:41.046Z,29.38
2023-05-09T12:22:40.382Z,29.37
2023-05-09T12:23:41.073Z,29.30
2023-05-09T12:24:40.348Z,29.20
2023-05-09T12:25:41.022Z,29.10
2023-05-09T12:26:40.995Z,29.02
2023-05-09T12:27:41.069Z,28.97
2023-05-09T12:28:40.308Z,28.95
2023-05-09T12:29:40.985Z,29.00
2023-05-09T12:30:40.977Z,29.06
2023-05-09T12:31:40.337Z,29.09
2023-05-09T12:32:40.966Z,29.15
2023-05-09T12:33:40.951Z,29.17
2023-05-09T12:34:40.237Z,29.15
2023-05-09T12:35:40.285Z,29.07
2023-05-09T12:36:40.352Z,28.99
2023-05-09T12:37:40.897Z,28.95
2023-05-09T12:38:40.908Z,28.90
2023-05-09T12:39:40.204Z,28.87
2023-05-09T12:40:40.189Z,28.85
2023-05-09T12:41:46.971Z,28.80
2023-05-09T12:42:41.857Z,28.77
2023-05-09T12:43:40.141Z,28.71
2023-05-09T12:44:40.797Z,28.71
2023-05-09T12:45:40.195Z,28.74
2023-05-09T12:46:40.829Z,28.77
2023-05-09T12:47:40.806Z,28.80
2023-05-09T12:48:40.780Z,28.79
2023-05-09T12:49:40.771Z,28.75
2023-05-09T12:50:40.795Z,28.70
2023-05-09T12:51:40.051Z,28.68
2023-05-09T12:52:54.016Z,28.68